createdAt,value
2018-12-17T00:00:42.113Z,8.08
2018-12-17T00:01:40.815Z,8.08
2018-12-17T00:02:39.490Z,8.07
2018-12-17T00:03:38.175Z,8.11
2018-12-17T00:04:36.854Z,8.08
2018-12-17T00:05:41.549Z,8.1
2018-12-17T00:06:34.074Z,8.1
2018-12-17T00:07:32.629Z,8.05
2018-12-17T00:08:32.041Z,8.02
2018-12-17T00:09:29.728Z,8.08
2018-12-17T00:10:28.307Z,8.08
2018-12-17T00:11:27.022Z,8.05
2018-12-17T00:12:25.712Z,8.05
2018-12-17T00:13:24.257Z,8.08
2018-12-17T00:14:22.970Z,8.07
2018-12-17T00:15:21.725Z,8.12
2018-12-17T00:16:20.273Z,8.1
2018-12-17T00:17:18.827Z,8.11
2018-12-17T00:18:17.391Z,8
2018-12-17T00:19:15.913Z,8.02
2018-12-17T00:20:14.657Z,8.15
2018-12-17T00:21:13.580Z,8.05
2018-12-17T00:22:12.128Z,8.08
2018-12-17T00:23:10.765Z,8.07
2018-12-17T00:24:09.376Z,8.05
2018-12-17T00:25:07.917Z,8.08
2018-12-17T00:26:06.456Z,7.98
2018-12-17T00:27:05.299Z,8.11
2018-12-17T00:28:08.052Z,8.08
2018-12-17T00:29:02.712Z,8.05
2018-12-17T00:30:01.433Z,8.05
2018-12-17T00:30:59.986Z,8.07
2018-12-17T00:31:58.514Z,8.05
2018-12-17T00:32:57.274Z,8.07
2018-12-17T00:33:55.844Z,8.07
2018-12-17T00:34:54.381Z,8.02
2018-12-17T00:35:53.366Z,8.04
2018-12-17T00:36:51.898Z,8.19
2018-12-17T00:37:50.469Z,8.12
2018-12-17T00:38:49.073Z,8.12
2018-12-17T00:39:47.608Z,8.2
2018-12-17T00:40:46.161Z,8.11
2018-12-17T00:41:44.705Z,8.16
2018-12-17T00:42:43.392Z,8.1
2018-12-17T00:43:41.937Z,8.1
2018-12-17T00:44:40.450Z,8.18
2018-12-17T00:45:39.346Z,8.1
2018-12-17T00:46:37.889Z,8.15
2018-12-17T00:47:36.482Z,8.12
2018-12-17T00:48:35.240Z,8.05
2018-12-17T00:49:33.787Z,8.19
2018-12-17T00:50:32.323Z,8.08
2018-12-17T00:51:30.870Z,8.08
2018-12-17T00:52:29.429Z,8.11
2018-12-17T00:53:27.981Z,8.08
2018-12-17T00:54:26.753Z,8.08
2018-12-17T00:55:25.654Z,8.16
2018-12-17T00:56:24.174Z,8.12
2018-12-17T00:57:22.966Z,8.05
2018-12-17T00:58:21.601Z,8.05
2018-12-17T00:59:20.146Z,8.1
2018-12-17T01:00:18.820Z,8.05
2018-12-17T01:01:17.674Z,8.04
2018-12-17T01:02:16.225Z,8.05
2018-12-17T01:03:14.938Z,8.08
2018-12-17T01:04:13.516Z,8.1
2018-12-17T01:05:12.068Z,8.01
2018-12-17T01:06:10.604Z,8.07
2018-12-17T01:07:09.436Z,8.07
2018-12-17T01:08:08.029Z,8
2018-12-17T01:09:06.812Z,8.07
2018-12-17T01:10:05.560Z,8.11
2018-12-17T01:11:04.092Z,8.11
2018-12-17T01:12:02.626Z,8.08
2018-12-17T01:13:01.189Z,8.01
2018-12-17T01:13:59.721Z,8.11
2018-12-17T01:14:58.261Z,8.08
2018-12-17T01:15:56.878Z,8.08
2018-12-17T01:16:55.450Z,8.07
2018-12-17T01:17:53.990Z,8.04
2018-12-17T01:18:52.531Z,8.05
2018-12-17T01:19:51.421Z,8.1
2018-12-17T01:20:49.986Z,8.12
2018-12-17T01:21:48.601Z,8.1
2018-12-17T01:22:47.281Z,8.07
2018-12-17T01:23:45.816Z,8.1
2018-12-17T01:24:44.378Z,8.11
2018-12-17T01:25:42.985Z,8.18
2018-12-17T01:26:42.064Z,8.01
2018-12-17T01:27:40.746Z,8.12
2018-12-17T01:28:39.359Z,8
2018-12-17T01:29:37.884Z,8.07
2018-12-17T01:30:36.432Z,8.08
2018-12-17T01:31:34.989Z,8.07
2018-12-17T01:32:33.552Z,8.15
2018-12-17T01:33:32.105Z,8.1
2018-12-17T01:34:30.844Z,8.1
2018-12-17T01:35:29.567Z,8.15
2018-12-17T01:36:28.108Z,8.07
2018-12-17T01:37:26.817Z,8.01
2018-12-17T01:38:25.512Z,8
2018-12-17T01:39:24.042Z,7.92
2018-12-17T01:40:22.609Z,8.12
2018-12-17T01:41:21.163Z,8.08
2018-12-17T01:42:19.707Z,8.11
2018-12-17T01:43:18.347Z,8.1
2018-12-17T01:44:17.027Z,8.04
2018-12-17T01:45:15.691Z,8.04
2018-12-17T01:46:14.232Z,8.08
2018-12-17T01:47:13.040Z,8
2018-12-17T01:48:11.665Z,8.12
2018-12-17T01:49:10.216Z,8.11
2018-12-17T01:50:08.762Z,8.05
2018-12-17T01:51:07.295Z,8.07
2018-12-17T01:52:05.938Z,8.01
2018-12-17T01:53:04.579Z,8.1
2018-12-17T01:54:03.495Z,8.01
2018-12-17T01:55:02.024Z,8.01
2018-12-17T01:56:00.702Z,8.02
2018-12-17T01:56:59.398Z,8.12
2018-12-17T01:57:57.950Z,8.23
2018-12-17T01:58:56.534Z,8.01
2018-12-17T01:59:55.188Z,8.2
2018-12-17T02:00:54.015Z,8.08
2018-12-17T02:01:52.713Z,8.15
2018-12-17T02:02:51.383Z,8.01
2018-12-17T02:03:49.929Z,8.05
2018-12-17T02:04:48.449Z,8.15
2018-12-17T02:05:47.020Z,8.07
2018-12-17T02:06:45.549Z,8.11
2018-12-17T02:07:44.083Z,8.12
2018-12-17T02:08:42.606Z,8.11
2018-12-17T02:09:41.240Z,8.11
2018-12-17T02:10:39.814Z,8.2
2018-12-17T02:11:38.380Z,8.16
2018-12-17T02:12:37.386Z,8.18
2018-12-17T02:13:35.959Z,8.08
2018-12-17T02:14:34.471Z,8.23
2018-12-17T02:15:33.136Z,8.12
2018-12-17T02:16:31.685Z,8.16
2018-12-17T02:17:30.228Z,8.04
2018-12-17T02:18:29.054Z,8.11
2018-12-17T02:19:27.737Z,8.18
2018-12-17T02:20:26.233Z,8.12
2018-12-17T02:21:25.074Z,8.16
2018-12-17T02:22:23.714Z,8.19
2018-12-17T02:23:22.240Z,8.08
2018-12-17T02:24:20.742Z,8.12
2018-12-17T02:25:19.348Z,8.05
2018-12-17T02:26:17.911Z,8.05
2018-12-17T02:27:16.649Z,8.05
2018-12-17T02:28:15.474Z,8.02
2018-12-17T02:29:14.763Z,8.04
2018-12-17T02:30:13.498Z,8.04
2018-12-17T02:31:12.046Z,8.07
2018-12-17T02:32:10.680Z,8
2018-12-17T02:33:09.396Z,8.05
2018-12-17T02:34:07.923Z,8.07
2018-12-17T02:35:06.464Z,8.07
2018-12-17T02:36:05.018Z,8.19
2018-12-17T02:37:03.554Z,8.12
2018-12-17T02:38:02.105Z,8.12
2018-12-17T02:39:00.839Z,7.97
2018-12-17T02:39:59.611Z,8.1
2018-12-17T02:40:58.131Z,8.12
2018-12-17T02:41:56.854Z,8.1
2018-12-17T02:42:55.549Z,8.07
2018-12-17T02:43:54.082Z,8.1
2018-12-17T02:44:52.635Z,8.04
2018-12-17T02:45:51.257Z,8.16
2018-12-17T02:46:49.811Z,8.12
2018-12-17T02:47:48.382Z,8.04
2018-12-17T02:48:47.017Z,8.01
2018-12-17T02:49:45.653Z,8.08
2018-12-17T02:50:44.200Z,7.86
2018-12-17T02:51:42.994Z,7.93
2018-12-17T02:52:41.692Z,7.9
2018-12-17T02:53:40.223Z,7.98
2018-12-17T02:54:38.758Z,7.98
2018-12-17T02:55:37.309Z,7.89
2018-12-17T02:56:35.838Z,7.85
2018-12-17T02:57:34.555Z,7.79
2018-12-17T02:58:33.397Z,7.86
2018-12-17T02:59:31.940Z,7.75
2018-12-17T03:00:30.612Z,7.69
2018-12-17T03:01:29.320Z,7.67
2018-12-17T03:02:27.865Z,7.72
2018-12-17T03:03:26.430Z,7.69
2018-12-17T03:04:25.281Z,7.85
2018-12-17T03:05:23.857Z,7.87
2018-12-17T03:06:22.434Z,7.87
2018-12-17T03:07:21.265Z,7.95
2018-12-17T03:08:19.837Z,7.95
2018-12-17T03:09:18.376Z,8.02
2018-12-17T03:10:17.079Z,7.89
2018-12-17T03:12:57.285Z,8
2018-12-17T03:13:55.837Z,7.95
2018-12-17T03:14:54.377Z,8.02
2018-12-17T03:15:53.264Z,7.95
2018-12-17T03:16:51.899Z,8.01
2018-12-17T03:17:50.468Z,8
2018-12-17T03:18:49.020Z,8.1
2018-12-17T03:19:47.534Z,8.1
2018-12-17T03:20:46.075Z,7.98
2018-12-17T03:21:44.632Z,7.95
2018-12-17T03:22:43.186Z,8.07
2018-12-17T03:23:41.743Z,8.1
2018-12-17T03:24:40.355Z,8.1
2018-12-17T03:25:39.033Z,8.12
2018-12-17T03:26:37.698Z,8.01
2018-12-17T03:27:36.253Z,8
2018-12-17T03:28:35.005Z,7.83
2018-12-17T03:29:33.661Z,7.85
2018-12-17T03:30:32.191Z,7.92
2018-12-17T03:31:30.880Z,7.87
2018-12-17T03:32:29.438Z,7.93
2018-12-17T03:33:28.021Z,8.02
2018-12-17T03:34:26.624Z,8.1
2018-12-17T03:35:25.427Z,8.1
2018-12-17T03:36:23.989Z,8.05
2018-12-17T03:37:22.611Z,8.1
2018-12-17T03:38:21.279Z,8.1
2018-12-17T03:39:19.968Z,8.07
2018-12-17T03:40:18.702Z,8.01
2018-12-17T03:41:17.587Z,8.01
2018-12-17T03:42:16.134Z,8.08
2018-12-17T03:43:14.794Z,8.08
2018-12-17T03:44:13.404Z,8.08
2018-12-17T03:45:11.937Z,8.1
2018-12-17T03:46:10.490Z,7.95
2018-12-17T03:47:09.055Z,7.89
2018-12-17T03:48:07.599Z,7.89
2018-12-17T03:49:06.143Z,7.79
2018-12-17T03:50:04.897Z,7.75
2018-12-17T03:51:03.618Z,7.82
2018-12-17T03:52:02.181Z,7.82
2018-12-17T03:53:00.832Z,7.89
2018-12-17T03:53:59.513Z,7.77
2018-12-17T03:54:58.054Z,7.67
2018-12-17T03:55:56.614Z,7.64
2018-12-17T03:56:55.178Z,7.69
2018-12-17T03:57:53.869Z,7.8
2018-12-17T03:58:59.025Z,7.86
2018-12-17T03:59:51.459Z,7.89
2018-12-17T04:00:50.016Z,7.92
2018-12-17T04:01:48.591Z,7.77
2018-12-17T04:02:47.189Z,7.87
2018-12-17T04:03:45.742Z,7.85
2018-12-17T04:04:44.264Z,7.82
2018-12-17T04:05:42.784Z,7.92
2018-12-17T04:06:41.347Z,7.86
2018-12-17T04:07:40.021Z,7.9
2018-12-17T04:08:38.682Z,7.97
2018-12-17T04:09:37.572Z,7.85
2018-12-17T04:10:36.110Z,7.92
2018-12-17T04:11:34.740Z,7.92
2018-12-17T04:12:33.406Z,7.72
2018-12-17T04:13:31.970Z,7.74
2018-12-17T04:14:30.484Z,7.71
2018-12-17T04:15:29.013Z,7.77
2018-12-17T04:16:27.589Z,7.77
2018-12-17T04:17:26.135Z,7.83
2018-12-17T04:18:24.805Z,7.68
2018-12-17T04:19:23.755Z,7.8
2018-12-17T04:20:22.294Z,7.93
2018-12-17T04:21:21.001Z,7.8
2018-12-17T04:22:19.588Z,7.8
2018-12-17T04:23:18.191Z,7.82
2018-12-17T04:24:17.006Z,7.68
2018-12-17T04:25:15.650Z,7.61
2018-12-17T04:26:14.204Z,7.55
2018-12-17T04:27:12.910Z,7.55
2018-12-17T04:28:11.641Z,7.55
2018-12-17T04:29:10.188Z,7.57
2018-12-17T04:30:08.729Z,7.64
2018-12-17T04:31:07.257Z,7.55
2018-12-17T04:32:05.770Z,7.61
2018-12-17T04:33:04.316Z,7.5
2018-12-17T04:34:03.084Z,7.39
2018-12-17T04:35:01.781Z,7.43
2018-12-17T04:36:01.120Z,7.53
2018-12-17T04:36:59.740Z,7.61
2018-12-17T04:37:58.285Z,7.71
2018-12-17T04:38:57.067Z,7.82
2018-12-17T04:39:55.761Z,7.72
2018-12-17T04:40:54.305Z,7.74
2018-12-17T04:41:52.853Z,7.72
2018-12-17T04:42:51.429Z,7.82
2018-12-17T04:43:49.991Z,7.72
2018-12-17T04:44:48.775Z,7.8
2018-12-17T04:45:47.555Z,7.75
2018-12-17T04:46:46.130Z,7.74
2018-12-17T04:47:44.834Z,7.77
2018-12-17T04:48:43.466Z,7.83
2018-12-17T04:49:42.037Z,7.85
2018-12-17T04:50:40.734Z,7.85
2018-12-17T04:51:39.594Z,7.89
2018-12-17T04:52:38.144Z,7.87
2018-12-17T04:53:36.850Z,7.9
2018-12-17T04:54:35.485Z,7.8
2018-12-17T04:55:34.032Z,7.85
2018-12-17T04:56:32.584Z,7.75
2018-12-17T04:57:31.137Z,7.6
2018-12-17T04:58:29.686Z,7.67
2018-12-17T04:59:28.224Z,7.68
2018-12-17T05:00:27.002Z,7.63
2018-12-17T05:01:25.648Z,7.71
2018-12-17T05:02:24.206Z,7.77
2018-12-17T05:03:22.967Z,7.74
2018-12-17T05:04:21.674Z,7.83
2018-12-17T05:05:20.217Z,7.87
2018-12-17T05:06:18.773Z,7.83
2018-12-17T05:07:17.310Z,7.89
2018-12-17T05:08:15.854Z,7.9
2018-12-17T05:09:14.405Z,7.86
2018-12-17T05:10:13.068Z,7.89
2018-12-17T05:11:11.794Z,8.02
2018-12-17T05:12:10.315Z,7.92
2018-12-17T05:13:09.127Z,7.93
2018-12-17T05:14:07.731Z,7.92
2018-12-17T05:15:06.267Z,8
2018-12-17T05:16:04.814Z,8
2018-12-17T05:17:03.439Z,8.04
2018-12-17T05:18:02.007Z,7.97
2018-12-17T05:19:00.778Z,7.85
2018-12-17T05:19:59.583Z,7.93
2018-12-17T05:20:58.189Z,7.9
2018-12-17T05:21:56.909Z,7.82
2018-12-17T05:22:55.490Z,7.87
2018-12-17T05:23:54.055Z,7.79
2018-12-17T05:24:52.644Z,7.92
2018-12-17T05:25:51.352Z,7.77
2018-12-17T05:26:49.883Z,7.79
2018-12-17T05:27:48.456Z,7.77
2018-12-17T05:28:47.405Z,7.79
2018-12-17T05:29:45.996Z,7.79
2018-12-17T05:30:44.549Z,7.86
2018-12-17T05:31:43.151Z,7.95
2018-12-17T05:32:41.672Z,7.87
2018-12-17T05:33:40.221Z,7.93
2018-12-17T05:34:38.762Z,7.97
2018-12-17T05:35:37.539Z,8.01
2018-12-17T05:36:36.076Z,8.01
2018-12-17T05:37:34.675Z,8.07
2018-12-17T05:38:33.431Z,8.01
2018-12-17T05:39:31.979Z,7.97
2018-12-17T05:40:30.509Z,7.95
2018-12-17T05:41:29.279Z,7.92
2018-12-17T05:42:27.925Z,8.04
2018-12-17T05:43:26.512Z,8.01
2018-12-17T05:44:25.166Z,8.07
2018-12-17T05:45:23.800Z,8.07
2018-12-17T05:46:22.383Z,8.08
2018-12-17T05:47:21.163Z,8.04
2018-12-17T05:48:19.716Z,8.01
2018-12-17T05:49:18.263Z,7.98
2018-12-17T05:50:16.821Z,8.05
2018-12-17T05:51:15.522Z,8.05
2018-12-17T05:52:14.108Z,8.11
2018-12-17T05:53:12.835Z,8.11
2018-12-17T05:54:11.518Z,8.11
2018-12-17T05:55:10.073Z,8.1
2018-12-17T05:56:08.793Z,8.12
2018-12-17T05:57:07.387Z,8.07
2018-12-17T05:58:06.019Z,7.92
2018-12-17T05:59:04.624Z,7.86
2018-12-17T06:00:03.417Z,7.9
2018-12-17T06:01:01.974Z,7.93
2018-12-17T06:02:00.611Z,7.85
2018-12-17T06:02:59.389Z,8
2018-12-17T06:03:57.934Z,7.85
2018-12-17T06:04:56.469Z,7.8
2018-12-17T06:05:55.118Z,7.93
2018-12-17T06:06:53.709Z,7.86
2018-12-17T06:07:52.250Z,7.68
2018-12-17T06:08:50.774Z,7.74
2018-12-17T06:09:49.336Z,7.69
2018-12-17T06:10:47.895Z,7.75
2018-12-17T06:11:46.435Z,7.67
2018-12-17T06:12:45.319Z,7.67
2018-12-17T06:13:43.842Z,7.77
2018-12-17T06:14:42.519Z,7.74
2018-12-17T06:15:41.277Z,7.69
2018-12-17T06:16:39.813Z,7.75
2018-12-17T06:17:38.321Z,7.71
2018-12-17T06:18:36.871Z,7.72
2018-12-17T06:19:35.407Z,7.71
2018-12-17T06:20:33.955Z,7.57
2018-12-17T06:21:32.831Z,7.55
2018-12-17T06:22:31.639Z,7.55
2018-12-17T06:23:30.168Z,7.46
2018-12-17T06:24:28.923Z,7.39
2018-12-17T06:25:27.552Z,7.42
2018-12-17T06:26:26.108Z,7.4
2018-12-17T06:27:24.826Z,7.24
2018-12-17T06:28:23.692Z,7.17
2018-12-17T06:29:22.230Z,7.27
2018-12-17T06:30:20.936Z,7.42
2018-12-17T06:31:19.649Z,7.42
2018-12-17T06:32:18.218Z,7.4
2018-12-17T06:33:16.899Z,7.42
2018-12-17T06:34:15.607Z,7.42
2018-12-17T06:35:14.179Z,7.43
2018-12-17T06:36:12.946Z,7.28
2018-12-17T06:37:11.649Z,7.3
2018-12-17T06:38:10.240Z,7.31
2018-12-17T06:39:08.782Z,7.4
2018-12-17T06:40:10.349Z,7.4
2018-12-17T06:41:06.170Z,7.32
2018-12-17T06:42:05.034Z,7.42
2018-12-17T06:43:03.734Z,7.27
2018-12-17T06:44:02.289Z,7.03
2018-12-17T06:45:00.902Z,7.09
2018-12-17T06:45:59.517Z,7.09
2018-12-17T06:46:58.025Z,7.05
2018-12-17T06:49:38.384Z,7.09
2018-12-17T06:50:37.246Z,7.24
2018-12-17T06:51:35.850Z,7.13
2018-12-17T06:52:34.370Z,7.21
2018-12-17T06:53:32.998Z,6.92
2018-12-17T06:54:31.578Z,6.95
2018-12-17T06:55:30.127Z,6.91
2018-12-17T06:56:28.720Z,6.98
2018-12-17T06:57:27.684Z,6.99
2018-12-17T06:58:26.215Z,6.89
2018-12-17T06:59:24.752Z,6.88
2018-12-17T07:00:23.479Z,6.92
2018-12-17T07:01:22.037Z,7.02
2018-12-17T07:02:20.793Z,6.91
2018-12-17T07:03:19.632Z,6.99
2018-12-17T07:04:18.173Z,7.05
2018-12-17T07:05:16.893Z,7.02
2018-12-17T07:06:15.591Z,6.99
2018-12-17T07:07:14.126Z,7.1
2018-12-17T07:08:12.699Z,7.17
2018-12-17T07:09:11.421Z,7.09
2018-12-17T07:10:10.001Z,6.99
2018-12-17T07:11:08.537Z,7.03
2018-12-17T07:12:07.364Z,6.97
2018-12-17T07:13:05.892Z,7.02
2018-12-17T07:14:04.442Z,6.97
2018-12-17T07:15:03.077Z,6.99
2018-12-17T07:16:01.627Z,7.02
2018-12-17T07:17:00.158Z,6.91
2018-12-17T07:17:58.716Z,7.02
2018-12-17T07:18:57.258Z,6.94
2018-12-17T07:19:55.838Z,6.89
2018-12-17T07:20:54.408Z,6.94
2018-12-17T07:24:33.448Z,7.21
2018-12-17T07:25:32.036Z,7.07
2018-12-17T07:26:30.581Z,7.03
2018-12-17T07:27:29.343Z,7.13
2018-12-17T07:28:27.937Z,7.17
2018-12-17T07:29:26.431Z,7.31
2018-12-17T07:30:25.156Z,7.92
2018-12-17T07:31:23.841Z,8.05
2018-12-17T07:32:22.573Z,7.77
2018-12-17T07:33:21.494Z,7.67
2018-12-17T07:34:20.022Z,7.46
2018-12-17T07:35:18.647Z,7.28
2018-12-17T07:36:17.500Z,7.25
2018-12-17T07:37:16.049Z,7.37
2018-12-17T07:38:14.702Z,7.49
2018-12-17T07:39:13.497Z,8.11
2018-12-17T07:40:12.065Z,7.83
2018-12-17T07:41:10.816Z,7.63
2018-12-17T07:42:09.618Z,7.58
2018-12-17T07:43:08.179Z,7.43
2018-12-17T07:44:06.963Z,7.3
2018-12-17T07:45:05.526Z,7.43
2018-12-17T07:46:04.047Z,7.5
2018-12-17T07:47:02.593Z,7.53
2018-12-17T07:48:01.220Z,7.61
2018-12-17T07:48:59.780Z,7.74
2018-12-17T07:49:58.290Z,7.55
2018-12-17T07:50:56.997Z,7.69
2018-12-17T07:51:55.648Z,7.82
2018-12-17T07:52:54.187Z,8.33
2018-12-17T07:53:52.860Z,8.7
2018-12-17T07:54:51.607Z,8.77
2018-12-17T07:55:50.161Z,8.8
2018-12-17T07:56:49.510Z,8.56
2018-12-17T07:57:48.086Z,8.19
2018-12-17T07:58:46.620Z,8.16
2018-12-17T07:59:45.247Z,8
2018-12-17T08:00:43.808Z,8
2018-12-17T08:01:42.356Z,8.04
2018-12-17T08:02:41.106Z,8.02
2018-12-17T08:03:39.878Z,7.89
2018-12-17T08:04:38.530Z,8.01
2018-12-17T08:05:37.290Z,8.07
2018-12-17T08:06:35.823Z,8.04
2018-12-17T08:07:34.364Z,8.07
2018-12-17T08:08:35.474Z,9.08
2018-12-17T08:09:31.465Z,9.08
2018-12-17T08:10:30.022Z,8.73
2018-12-17T08:11:28.718Z,9.14
2018-12-17T08:12:27.578Z,9.05
2018-12-17T08:13:26.165Z,8.65
2018-12-17T08:14:24.941Z,8.45
2018-12-17T08:15:23.477Z,8.48
2018-12-17T08:16:22.035Z,8.22
2018-12-17T08:17:20.569Z,8.1
2018-12-17T08:18:19.311Z,8.04
2018-12-17T08:19:17.850Z,8.15
2018-12-17T08:20:16.427Z,8
2018-12-17T08:21:15.342Z,7.75
2018-12-17T08:22:13.864Z,8.3
2018-12-17T08:23:12.417Z,8.45
2018-12-17T08:24:11.085Z,8.05
2018-12-17T08:25:09.720Z,7.72
2018-12-17T08:26:08.188Z,7.71
2018-12-17T08:27:06.712Z,7.85
2018-12-17T08:28:05.237Z,7.97
2018-12-17T08:29:03.776Z,8.11
2018-12-17T08:30:03.973Z,8.58
2018-12-17T08:31:01.073Z,8.48
2018-12-17T08:31:59.772Z,8.65
2018-12-17T08:32:58.303Z,8.84
2018-12-17T08:33:57.066Z,8.38
2018-12-17T08:34:55.698Z,8.05
2018-12-17T08:35:54.290Z,8.02
2018-12-17T08:36:52.821Z,8.07
2018-12-17T08:37:51.401Z,8.11
2018-12-17T08:38:49.959Z,8.04
2018-12-17T08:39:48.685Z,8.07
2018-12-17T08:40:47.560Z,8.25
2018-12-17T08:41:46.065Z,7.97
2018-12-17T08:42:45.253Z,7.85
2018-12-17T08:43:43.904Z,7.74
2018-12-17T08:44:42.580Z,7.72
2018-12-17T08:45:41.216Z,7.77
2018-12-17T08:46:39.769Z,7.74
2018-12-17T08:47:38.275Z,7.64
2018-12-17T08:48:36.951Z,7.52
2018-12-17T08:49:35.568Z,7.69
2018-12-17T08:50:34.099Z,7.77
2018-12-17T08:51:32.677Z,7.6
2018-12-17T08:52:31.493Z,7.63
2018-12-17T08:53:30.027Z,7.72
2018-12-17T08:54:28.575Z,7.72
2018-12-17T08:55:27.409Z,7.69
2018-12-17T08:56:25.952Z,7.69
2018-12-17T08:57:24.516Z,7.52
2018-12-17T08:58:23.135Z,8.15
2018-12-17T08:59:21.770Z,8.04
2018-12-17T09:00:20.296Z,7.83
2018-12-17T09:01:19.040Z,8.25
2018-12-17T09:02:17.720Z,8.28
2018-12-17T09:03:16.345Z,8.05
2018-12-17T09:04:15.232Z,7.83
2018-12-17T09:05:13.738Z,7.85
2018-12-17T09:06:12.261Z,7.67
2018-12-17T09:07:10.842Z,7.64
2018-12-17T09:08:09.440Z,7.75
2018-12-17T09:09:07.952Z,7.69
2018-12-17T09:10:06.489Z,7.74
2018-12-17T09:11:05.153Z,7.72
2018-12-17T09:12:03.832Z,7.85
2018-12-17T09:13:02.415Z,8.07
2018-12-17T09:14:01.285Z,8.79
2018-12-17T09:14:59.893Z,8.66
2018-12-17T09:15:58.604Z,8.74
2018-12-17T09:16:57.330Z,8.56
2018-12-17T09:17:55.938Z,8.26
2018-12-17T09:18:54.576Z,8.08
2018-12-17T09:19:53.519Z,8.12
2018-12-17T09:20:52.043Z,8.07
2018-12-17T09:21:50.596Z,8.04
2018-12-17T09:22:49.112Z,8.33
2018-12-17T09:23:47.649Z,8.26
2018-12-17T09:24:46.176Z,8.25
2018-12-17T09:25:44.927Z,8.4
2018-12-17T09:26:43.645Z,8.12
2018-12-17T09:27:42.185Z,8.3
2018-12-17T09:28:40.997Z,8.02
2018-12-17T09:29:39.624Z,8.15
2018-12-17T09:30:41.221Z,8.11
2018-12-17T09:31:36.653Z,8.08
2018-12-17T09:32:35.436Z,8.11
2018-12-17T09:33:33.945Z,7.89
2018-12-17T09:34:32.481Z,7.67
2018-12-17T09:35:31.504Z,7.77
2018-12-17T09:36:30.019Z,7.98
2018-12-17T09:37:28.558Z,7.77
2018-12-17T09:38:27.228Z,7.61
2018-12-17T09:39:25.842Z,7.74
2018-12-17T09:40:24.371Z,7.79
2018-12-17T09:41:22.915Z,7.79
2018-12-17T09:42:21.463Z,7.58
2018-12-17T09:43:20.013Z,7.67
2018-12-17T09:44:18.717Z,7.69
2018-12-17T09:45:17.467Z,8.07
2018-12-17T09:46:15.987Z,8.19
2018-12-17T09:47:14.716Z,8.38
2018-12-17T09:48:13.429Z,7.89
2018-12-17T09:49:11.994Z,8.01
2018-12-17T09:50:10.552Z,7.67
2018-12-17T09:51:09.053Z,7.67
2018-12-17T09:52:07.615Z,7.64
2018-12-17T09:53:06.132Z,7.55
2018-12-17T09:54:04.789Z,7.63
2018-12-17T09:55:03.713Z,7.64
2018-12-17T09:56:02.236Z,7.75
2018-12-17T09:57:00.889Z,7.67
2018-12-17T09:57:59.587Z,7.64
2018-12-17T09:58:58.126Z,7.75
2018-12-17T09:59:57.029Z,7.92
2018-12-17T10:00:55.621Z,7.89
2018-12-17T10:01:54.187Z,8.25
2018-12-17T10:02:52.942Z,8.02
2018-12-17T10:03:51.599Z,8.01
2018-12-17T10:04:50.128Z,8.08
2018-12-17T10:05:48.734Z,8.18
2018-12-17T10:06:47.249Z,8.33
2018-12-17T10:07:45.813Z,8.04
2018-12-17T10:08:44.389Z,8.05
2018-12-17T10:09:43.103Z,7.92
2018-12-17T10:10:41.823Z,8.07
2018-12-17T10:11:40.405Z,8.4
2018-12-17T10:12:39.140Z,8.29
2018-12-17T10:13:37.822Z,8.41
2018-12-17T10:14:36.518Z,8.2
2018-12-17T10:15:35.197Z,8.28
2018-12-17T10:16:33.949Z,8.11
2018-12-17T10:17:32.792Z,7.89
2018-12-17T10:18:36.764Z,7.98
2018-12-17T10:19:29.943Z,8.02
2018-12-17T10:20:28.758Z,7.86
2018-12-17T10:21:27.576Z,8.1
2018-12-17T10:22:26.064Z,8.1
2018-12-17T10:23:24.795Z,8.22
2018-12-17T10:24:23.518Z,8.3
2018-12-17T10:25:22.081Z,8.26
2018-12-17T10:26:20.596Z,8.1
2018-12-17T10:27:19.253Z,7.89
2018-12-17T10:28:17.794Z,8.07
2018-12-17T10:29:16.286Z,8.1
2018-12-17T10:30:15.078Z,8.11
2018-12-17T10:31:13.654Z,8.26
2018-12-17T10:32:12.182Z,8
2018-12-17T10:33:10.716Z,8.12
2018-12-17T10:34:09.520Z,8.07
2018-12-17T10:35:08.047Z,8.26
2018-12-17T10:36:06.604Z,8.34
2018-12-17T10:37:05.192Z,8.12
2018-12-17T10:38:03.725Z,8.08
2018-12-17T10:39:02.327Z,8.16
2018-12-17T10:40:01.001Z,8.25
2018-12-17T10:40:59.707Z,8.25
2018-12-17T10:41:58.243Z,8.4
2018-12-17T10:42:57.084Z,8.53
2018-12-17T10:43:55.760Z,8.47
2018-12-17T10:44:54.303Z,8.29
2018-12-17T10:45:52.886Z,8.23
2018-12-17T10:46:51.430Z,8.29
2018-12-17T10:47:49.977Z,8.25
2018-12-17T10:48:48.745Z,8.11
2018-12-17T10:49:47.539Z,8.04
2018-12-17T10:50:46.111Z,8.18
2018-12-17T10:51:44.794Z,8.11
2018-12-17T10:52:43.403Z,8.1
2018-12-17T10:53:41.967Z,8.1
2018-12-17T10:54:40.472Z,8.12
2018-12-17T10:55:39.026Z,8.25
2018-12-17T10:56:37.605Z,8.25
2018-12-17T10:57:36.160Z,8.34
2018-12-17T10:58:34.880Z,8.38
2018-12-17T10:59:33.737Z,8.48
2018-12-17T11:01:33.378Z,8.43
2018-12-17T11:02:31.885Z,8.48
2018-12-17T11:03:30.443Z,8.61
2018-12-17T11:04:29.245Z,8.48
2018-12-17T11:05:27.885Z,8.52
2018-12-17T11:06:26.440Z,8.5
2018-12-17T11:07:25.060Z,8.44
2018-12-17T11:08:23.664Z,8.5
2018-12-17T11:09:22.202Z,8.44
2018-12-17T11:10:20.754Z,8.29
2018-12-17T11:11:19.271Z,8.34
2018-12-17T11:12:17.867Z,8.5
2018-12-17T11:13:16.387Z,8.45
2018-12-17T11:14:15.078Z,8.36
2018-12-17T11:15:13.764Z,8.44
2018-12-17T11:16:12.317Z,8.34
2018-12-17T11:17:11.101Z,8.38
2018-12-17T11:18:09.849Z,8.44
2018-12-17T11:19:08.378Z,8.4
2018-12-17T11:20:06.889Z,8.36
2018-12-17T11:21:05.412Z,8.29
2018-12-17T11:22:03.952Z,8.15
2018-12-17T11:23:02.541Z,8.11
2018-12-17T11:24:01.293Z,8.08
2018-12-17T11:24:59.992Z,8.16
2018-12-17T11:25:58.635Z,8.23
2018-12-17T11:26:57.534Z,8.25
2018-12-17T11:27:56.045Z,8.23
2018-12-17T11:28:54.553Z,8.22
2018-12-17T11:29:53.120Z,8.3
2018-12-17T11:30:51.686Z,8.28
2018-12-17T11:31:50.237Z,8.22
2018-12-17T11:32:48.880Z,8.3
2018-12-17T11:33:47.694Z,8.26
2018-12-17T11:34:46.253Z,8.07
2018-12-17T11:35:44.934Z,8.08
2018-12-17T11:36:43.550Z,8.19
2018-12-17T11:37:42.131Z,8.16
2018-12-17T11:38:40.717Z,8.19
2018-12-17T11:39:39.417Z,8.26
2018-12-17T11:40:37.938Z,8.3
2018-12-17T11:41:36.456Z,8.3
2018-12-17T11:42:35.475Z,8.23
2018-12-17T11:43:34.029Z,8.33
2018-12-17T11:44:32.587Z,8.44
2018-12-17T11:45:31.148Z,8.34
2018-12-17T11:46:29.787Z,8.33
2018-12-17T11:47:28.326Z,8.29
2018-12-17T11:48:26.853Z,8.33
2018-12-17T11:49:25.704Z,8.37
2018-12-17T11:50:24.247Z,8.45
2018-12-17T11:51:23.097Z,8.44
2018-12-17T11:52:21.838Z,8.52
2018-12-17T11:53:20.370Z,8.61
2018-12-17T11:54:18.877Z,8.58
2018-12-17T11:55:17.480Z,8.58
2018-12-17T11:56:16.034Z,8.48
2018-12-17T11:57:14.676Z,8.36
2018-12-17T11:58:13.471Z,8.55
2018-12-17T11:59:12.030Z,8.76
2018-12-17T12:00:10.722Z,8.59
2018-12-17T12:01:09.427Z,8.68
2018-12-17T12:02:07.957Z,8.53
2018-12-17T12:03:06.488Z,8.58
2018-12-17T12:04:05.083Z,8.56
2018-12-17T12:05:03.596Z,8.45
2018-12-17T12:06:02.155Z,8.55
2018-12-17T12:07:00.843Z,8.56
2018-12-17T12:07:59.627Z,8.65
2018-12-17T12:08:58.144Z,8.81
2018-12-17T12:09:56.849Z,8.95
2018-12-17T12:10:55.626Z,8.98
2018-12-17T12:11:54.153Z,8.86
2018-12-17T12:12:52.705Z,8.79
2018-12-17T12:13:51.294Z,8.79
2018-12-17T12:14:49.780Z,8.79
2018-12-17T12:15:48.323Z,8.77
2018-12-17T12:16:47.051Z,8.76
2018-12-17T12:17:45.772Z,8.86
2018-12-17T12:18:44.338Z,8.94
2018-12-17T12:19:43.100Z,8.91
2018-12-17T12:20:41.749Z,8.98
2018-12-17T12:21:40.268Z,9.01
2018-12-17T12:22:38.804Z,8.92
2018-12-17T12:23:37.329Z,8.95
2018-12-17T12:24:35.881Z,8.98
2018-12-17T12:25:34.422Z,8.96
2018-12-17T12:26:32.961Z,8.96
2018-12-17T12:27:31.531Z,8.92
2018-12-17T12:28:30.049Z,8.94
2018-12-17T12:29:28.782Z,8.96
2018-12-17T12:30:27.643Z,8.87
2018-12-17T12:31:26.176Z,8.86
2018-12-17T12:32:24.899Z,8.84
2018-12-17T12:33:23.458Z,8.86
2018-12-17T12:34:22.006Z,8.8
2018-12-17T12:35:20.576Z,8.74
2018-12-17T12:36:19.125Z,8.84
2018-12-17T12:37:17.646Z,8.77
2018-12-17T12:38:16.187Z,8.83
2018-12-17T12:39:14.783Z,8.84
2018-12-17T12:40:13.485Z,8.79
2018-12-17T12:41:12.051Z,8.84
2018-12-17T12:42:10.572Z,8.96
2018-12-17T12:43:09.456Z,8.96
2018-12-17T12:44:08.856Z,9.1
2018-12-17T12:45:06.554Z,8.96
2018-12-17T12:46:05.178Z,8.83
2018-12-17T12:47:03.736Z,8.87
2018-12-17T12:48:02.351Z,8.89
2018-12-17T12:49:01.030Z,8.84
2018-12-17T12:49:59.708Z,8.8
2018-12-17T12:50:58.235Z,9.51
2018-12-17T12:51:57.090Z,9.47
2018-12-17T12:52:55.799Z,9.9
2018-12-17T12:53:54.424Z,9.99
2018-12-17T12:54:53.147Z,10.26
2018-12-17T12:55:51.800Z,9.99
2018-12-17T12:56:50.364Z,9.48
2018-12-17T12:57:49.236Z,9.18
2018-12-17T12:58:48.063Z,8.96
2018-12-17T12:59:46.591Z,8.87
2018-12-17T13:00:45.300Z,8.92
2018-12-17T13:01:43.955Z,8.73
2018-12-17T13:02:42.582Z,8.92
2018-12-17T13:03:41.280Z,9.01
2018-12-17T13:04:39.902Z,8.99
2018-12-17T13:05:38.441Z,9.05
2018-12-17T13:06:36.969Z,9.14
2018-12-17T13:07:35.567Z,9.15
2018-12-17T13:08:34.110Z,9.23
2018-12-17T13:09:32.858Z,9.46
2018-12-17T13:10:31.837Z,9.39
2018-12-17T13:11:30.377Z,9.39